Hlavní strana
METAR-TAF:

METAR-TAF

Letiště :

El Oued, Alžírsko

zeměpisná šířka: 33-30-47N, zeměpisná délka: 006-46-57E, výška: 62 m

Aktuální stav počasí

Zpráva byla vytvořena před 21 minutami, v 22:00 UTC
Východní vítr 13 kt
Teplota 15°C
Vlhkost vzduchu 67%
Tlak 1021 hPa
Viditelnost: 6000 m

METAR: DAUO 282200Z 10013KT 6000 NSC 15/09 Q1021

Čas: 23:21 (22:21 UTC)

Předpověď počasí

Zpráva byla vytvořena před 2 hodinami a 21 minutami, v 20:00 UTC
Předpověď platná od 28 v 21 UTC do 01 v 06 UTC
Východní vítr 10 kt
Viditelnost: 7000 m
Pravděpodobnost 30% :
Dočasný
od 28 v 21 UTC do 28 v 24 UTC
Východní vítr 20 kt
Viditelnost: 5000 m
nízko zvířený písek

TAF: DAUO 282000Z 2821/0106 09010KT 7000 NSC PROB30 TEMPO 2821/2824 08020KT 5000 DRSA

Stav a předpovědi počasí z více než 4 000 letišť (zprávy METAR a TAF).

Červené a žluté tečky na mapě představují dostupné meteorologické stanice.

Když kurzor umístíte na tečku, zobrazí se název stanice.

Pak kliknutím zobrazíte stav a předpověď počasí.

Chcete-li změnit mapu, kliknutím na zelené tlačítko se znaménkem +mapu přiblížíte, kliknutím na zelené tlačítko se znaménkem – mapu oddálíte a kliknutím na zelené šipky přejdete na sousední mapy.


METAR-TAF: